Time;durP1;ratioP1;P1;durP2;ratioP2;P2;SDS_P1;SDS_P2;PMS_P1;PMS_P2;Temp;Humidity;BMP_temperature;BMP_pressure;BME280_temperature;BME280_humidity;BME280_pressure;Samples;Min_cycle;Max_cycle;Signal;HPM_P1;HPM_P2
2023/01/13 00:01:25;;;;;;;7.80;4.30;;;;;;;-1.82;78.88;100222.17;78098;1300;3051409;-61
2023/01/13 00:03:52;;;;;;;5.60;3.20;;;;;;;-1.85;79.27;100225.08;79369;1300;3013516;-60
2023/01/13 00:06:21;;;;;;;11.10;4.60;;;;;;;-1.88;79.27;100219.23;79279;1295;3011880;-62
2023/01/13 00:08:49;;;;;;;8.00;4.20;;;;;;;-1.95;79.62;100219.90;78029;1300;3049273;-63
2023/01/13 00:11:16;;;;;;;15.60;4.50;;;;;;;-1.98;79.90;100218.86;79276;1300;3013267;-62
2023/01/13 00:13:43;;;;;;;11.10;3.00;;;;;;;-2.03;80.50;100217.99;79336;1296;3012060;-62
2023/01/13 00:16:16;;;;;;;6.80;3.90;;;;;;;-1.53;79.71;100217.90;78024;1301;3053054;-61
2023/01/13 00:18:43;;;;;;;;;;;;;;;-0.54;76.47;100213.14;79396;1296;3013206;-60
2023/01/13 00:21:22;;;;;;;5.40;3.20;;;;;;;-0.26;74.43;100215.62;78051;1295;3051787;-61
2023/01/13 00:23:51;;;;;;;11.00;3.50;;;;;;;-0.37;74.22;100213.95;77965;1301;3056999;-61
2023/01/13 00:26:19;;;;;;;8.30;4.10;;;;;;;-0.47;74.66;100213.48;79229;1299;3013007;-61
2023/01/13 00:28:48;;;;;;;5.90;3.40;;;;;;;-0.59;74.96;100212.81;78756;1301;3011757;-62
2023/01/13 00:31:19;;;;;;;8.40;4.20;;;;;;;-0.63;75.07;100213.18;79273;1299;3018438;-62
2023/01/13 00:33:48;;;;;;;7.00;4.00;;;;;;;-0.77;75.35;100213.39;78071;1301;3051814;-60
2023/01/13 00:36:16;;;;;;;13.00;4.30;;;;;;;-0.96;75.98;100214.96;79425;1295;3013016;-61
2023/01/13 00:38:43;;;;;;;7.10;3.90;;;;;;;-1.06;76.38;100211.20;79279;1295;3011580;-63
2023/01/13 00:41:18;;;;;;;8.60;3.50;;;;;;;-1.18;76.83;100212.93;78019;1300;3049704;-62
2023/01/13 00:43:45;;;;;;;9.40;3.70;;;;;;;-1.25;77.02;100206.91;79306;1299;3011539;-62
2023/01/13 00:46:15;;;;;;;12.60;3.80;;;;;;;-1.46;78.12;100208.46;78016;1301;3025091;-62
2023/01/13 00:48:44;;;;;;;7.80;3.50;;;;;;;-1.46;78.34;100203.99;79344;1296;3011830;-66
2023/01/13 00:51:16;;;;;;;9.50;3.60;;;;;;;-1.38;78.24;100203.14;78159;1300;3051587;-63
2023/01/13 00:53:44;;;;;;;6.20;3.40;;;;;;;-1.43;78.54;100204.86;79418;1297;3011575;-63
2023/01/13 00:56:16;;;;;;;6.50;3.60;;;;;;;-1.45;78.86;100203.30;78024;1301;3051081;-61
2023/01/13 00:58:44;;;;;;;8.70;4.00;;;;;;;-1.46;78.52;100201.08;79254;1295;3013032;-62
2023/01/13 01:01:14;;;;;;;7.60;3.70;;;;;;;-1.50;78.83;100200.55;78127;1299;3051000;-63
2023/01/13 01:03:41;;;;;;;8.50;4.50;;;;;;;-1.48;78.92;100195.92;79384;1295;3011591;-63
2023/01/13 01:06:23;;;;;;;10.90;4.60;;;;;;;-1.50;78.99;100200.38;78749;1300;3011531;-62
2023/01/13 01:08:53;;;;;;;11.00;3.40;;;;;;;-1.57;79.25;100197.11;78017;1301;3052968;-63
2023/01/13 01:11:24;;;;;;;8.30;4.00;;;;;;;-1.50;79.38;100195.23;79304;1299;3011691;-64
2023/01/13 01:13:53;;;;;;;12.20;4.00;;;;;;;-1.43;79.16;100195.75;78083;1301;3068912;-63
2023/01/13 01:16:25;;;;;;;17.30;3.80;;;;;;;-1.44;78.97;100198.84;79263;1295;3013368;-63
2023/01/13 01:18:53;;;;;;;9.50;4.50;;;;;;;-1.47;78.94;100200.39;78174;1295;3056296;-62
2023/01/13 01:21:20;;;;;;;11.80;4.10;;;;;;;-1.52;79.20;100201.77;79271;1295;3019070;-63
2023/01/13 01:23:47;;;;;;;11.10;3.50;;;;;;;-1.53;79.46;100201.42;79393;1295;3011444;-63
2023/01/13 01:26:20;;;;;;;7.80;3.10;;;;;;;-1.02;78.36;100208.43;78020;1300;3053279;-64
2023/01/13 01:28:47;;;;;;;3.80;2.20;;;;;;;-0.18;75.19;100202.67;79230;1301;3012819;-64
2023/01/13 01:31:16;;;;;;;9.80;2.90;;;;;;;-0.07;73.66;100208.65;78005;1295;3068343;-62
2023/01/13 01:33:43;;;;;;;12.30;2.60;;;;;;;-0.16;73.74;100203.01;79296;1295;3013038;-62
2023/01/13 01:36:10;;;;;;;7.30;3.10;;;;;;;-0.20;73.75;100199.59;79371;1295;3011950;-62
2023/01/13 01:38:38;;;;;;;10.60;3.40;;;;;;;-0.39;74.11;100196.39;78009;1295;3052787;-62
2023/01/13 01:41:05;;;;;;;17.30;4.40;;;;;;;-0.51;74.31;100198.52;79263;1298;3020963;-62
2023/01/13 01:44:00;;;;;;;10.40;3.80;;;;;;;-0.71;74.92;100196.67;79223;1301;3013758;-62
2023/01/13 01:46:41;;;;;;;11.10;4.20;;;;;;;-0.79;75.88;100197.55;78097;1300;3068693;-63
2023/01/13 01:49:18;;;;;;;13.40;4.30;;;;;;;-0.83;76.02;100198.42;78042;1300;3052115;-62
2023/01/13 01:51:55;;;;;;;13.00;4.10;;;;;;;-0.87;76.28;100201.19;78045;1298;3057200;-63
2023/01/13 01:54:37;;;;;;;7.30;3.80;;;;;;;-0.88;76.42;100196.20;78053;1300;3049480;-62
2023/01/13 01:57:06;;;;;;;8.90;3.80;;;;;;;-0.84;76.34;100197.74;78095;1295;3053507;-64
2023/01/13 01:59:33;;;;;;;19.30;4.70;;;;;;;-0.98;76.21;100196.56;79346;1300;3013015;-62
2023/01/13 02:01:59;;;;;;;13.00;4.60;;;;;;;-1.07;76.87;100196.77;79337;1301;3011567;-62
2023/01/13 02:04:38;;;;;;;13.20;4.10;;;;;;;-1.27;77.60;100201.08;78082;1299;3068075;-62
2023/01/13 02:07:06;;;;;;;8.10;3.60;;;;;;;-1.35;78.53;100204.68;77995;1296;3050883;-62
2023/01/13 02:09:33;;;;;;;9.20;3.90;;;;;;;-1.35;78.71;100199.69;79208;1295;3013678;-63
2023/01/13 02:14:47;;;;;;;13.70;4.70;;;;;;;-1.42;79.37;100204.16;78016;1300;3050560;-63
2023/01/13 02:17:20;;;;;;;15.70;4.50;;;;;;;-1.39;79.42;100199.52;79226;1301;3019735;-62
2023/01/13 02:20:13;;;;;;;7.10;3.80;;;;;;;-1.39;79.58;100201.07;78056;1301;3070780;-63
2023/01/13 02:22:51;;;;;;;8.50;4.80;;;;;;;-1.27;79.72;100203.98;77987;1301;3051875;-61
2023/01/13 02:25:32;;;;;;;11.60;4.40;;;;;;;-1.32;79.50;100204.34;78102;1295;3056117;-60
2023/01/13 02:28:26;;;;;;;11.80;3.80;;;;;;;-1.24;79.09;100200.73;78038;1295;3049867;-61
2023/01/13 02:34:01;;;;;;;12.30;4.50;;;;;;;-1.24;79.14;100200.90;78068;1301;3050432;-62
2023/01/13 02:36:36;;;;;;;7.60;4.40;;;;;;;-1.34;79.62;100203.98;78072;1301;3052628;-61
2023/01/13 02:39:42;;;;;;;7.70;4.00;;;;;;;-1.37;79.57;100207.26;78048;1301;3052480;-63
2023/01/13 02:45:28;;;;;;;13.10;3.60;;;;;;;-1.48;80.33;100206.40;78015;1299;3051597;-60
2023/01/13 02:47:55;;;;;;;6.50;3.40;;;;;;;-1.44;80.14;100207.94;79204;1295;3011667;-61
2023/01/13 02:50:35;;;;;;;9.20;3.40;;;;;;;-1.49;80.13;100204.17;76528;1295;3049320;-61
2023/01/13 02:53:07;;;;;;;4.70;2.20;;;;;;;-1.42;80.12;100208.46;77956;1296;3052609;-62
2023/01/13 02:55:37;;;;;;;16.40;3.80;;;;;;;-0.76;78.66;100207.01;79233;1296;3011750;-61
2023/01/13 02:58:07;;;;;;;6.20;1.90;;;;;;;0.07;75.60;100208.05;78025;1301;3051710;-61
2023/01/13 03:00:34;;;;;;;14.00;2.70;;;;;;;0.42;74.43;100205.75;79209;1300;3013904;-62
2023/01/13 03:03:03;;;;;;;9.40;3.20;;;;;;;0.26;73.57;100202.95;78712;1295;3011723;-63
2023/01/13 03:05:30;;;;;;;11.60;3.00;;;;;;;0.01;74.02;100206.36;79276;1295;3013324;-63
2023/01/13 03:08:16;;;;;;;11.80;2.80;;;;;;;-0.18;74.39;100208.36;79270;1300;3012062;-62
2023/01/13 03:11:03;;;;;;;13.20;2.90;;;;;;;-0.49;75.29;100207.27;78074;1299;3053703;-62
2023/01/13 03:13:49;;;;;;;8.10;2.70;;;;;;;-0.69;76.40;100214.39;78006;1301;3051006;-60
2023/01/13 03:16:37;;;;;;;6.50;2.80;;;;;;;-0.81;76.99;100215.80;78062;1300;3051945;-62
2023/01/13 03:19:20;;;;;;;7.40;3.20;;;;;;;-0.97;77.43;100209.64;78072;1295;3052629;-63
2023/01/13 03:21:58;;;;;;;11.10;3.30;;;;;;;-1.14;78.35;100201.91;78023;1295;3068138;-63
2023/01/13 03:24:41;;;;;;;9.20;3.30;;;;;;;-1.16;78.46;100207.25;78018;1300;3052305;-61
2023/01/13 03:27:15;;;;;;;5.80;2.80;;;;;;;-1.19;78.91;100207.77;78014;1295;3057722;-63
2023/01/13 03:29:45;;;;;;;10.80;3.10;;;;;;;-1.36;79.71;100204.34;79242;1296;3011663;-66
2023/01/13 03:32:18;;;;;;;7.70;3.20;;;;;;;-1.32;79.61;100208.45;78044;1300;3053584;-61
2023/01/13 03:34:47;;;;;;;10.30;3.20;;;;;;;-1.36;79.92;100209.14;79201;1295;3011878;-63
2023/01/13 03:37:17;;;;;;;16.10;3.30;;;;;;;-1.33;80.34;100207.60;78082;1301;3051736;-65
2023/01/13 03:39:47;;;;;;;8.70;3.30;;;;;;;-1.27;80.09;100208.46;79305;1295;3013525;-65
2023/01/13 03:42:20;;;;;;;8.10;3.80;;;;;;;-1.33;80.02;100204.00;78137;1296;3069641;-63
2023/01/13 03:45:04;;;;;;;14.40;4.00;;;;;;;-1.32;80.17;100206.05;79265;1295;3011868;-65
2023/01/13 03:47:50;;;;;;;13.70;4.60;;;;;;;-1.35;80.21;100207.95;78121;1301;3056691;-63
2023/01/13 03:50:27;;;;;;;10.00;4.20;;;;;;;-1.39;80.36;100203.99;77949;1301;3050069;-64
2023/01/13 03:53:01;;;;;;;11.30;3.90;;;;;;;-1.41;80.82;100205.54;77963;1295;3052653;-62
2023/01/13 03:55:33;;;;;;;14.90;4.00;;;;;;;-1.44;80.48;100205.55;78707;1300;3011817;-61
2023/01/13 03:58:32;;;;;;;8.80;3.60;;;;;;;-1.46;80.69;100204.51;79247;1299;3011470;-61
2023/01/13 04:01:21;;;;;;;9.80;3.40;;;;;;;-1.48;80.68;100209.16;78014;1301;3052501;-62
2023/01/13 04:04:04;;;;;;;5.80;2.30;;;;;;;-1.50;80.76;100207.77;78055;1299;3052330;-62
2023/01/13 04:06:39;;;;;;;25.90;4.40;;;;;;;-0.79;79.18;100207.87;77913;1300;3070179;-62
2023/01/13 04:09:30;;;;;;;6.20;2.90;;;;;;;-0.09;76.51;100207.45;79307;1301;3013301;-63
2023/01/13 04:12:09;;;;;;;10.90;3.50;;;;;;;-0.00;75.32;100206.90;77956;1302;3056046;-62
2023/01/13 04:14:37;;;;;;;10.50;3.30;;;;;;;-0.12;75.21;100207.63;78111;1296;3049958;-62
2023/01/13 04:17:04;;;;;;;9.70;3.90;;;;;;;-0.31;75.71;100205.31;79318;1295;3013072;-62
2023/01/13 04:19:31;;;;;;;8.70;3.30;;;;;;;-0.37;76.44;100203.45;79268;1299;3011673;-64
2023/01/13 04:22:00;;;;;;;15.30;4.50;;;;;;;-0.45;76.33;100202.95;78024;1300;3052457;-62
2023/01/13 04:24:26;;;;;;;16.40;4.20;;;;;;;-0.59;76.72;100202.15;79281;1300;3012916;-62
2023/01/13 04:26:55;;;;;;;15.10;3.80;;;;;;;-0.77;77.14;100200.81;79244;1300;3011797;-62
2023/01/13 04:29:23;;;;;;;14.10;4.20;;;;;;;-0.83;77.71;100205.66;78009;1300;3049747;-63
2023/01/13 04:31:49;;;;;;;9.90;3.80;;;;;;;-0.93;78.19;100204.98;79340;1296;3013082;-62
2023/01/13 04:34:16;;;;;;;16.40;3.90;;;;;;;-1.01;78.33;100203.80;79198;1295;3014148;-63
2023/01/13 04:36:44;;;;;;;10.70;4.60;;;;;;;-1.04;78.79;100200.54;78014;1301;3028963;-62
2023/01/13 04:39:11;;;;;;;18.60;4.30;;;;;;;-1.10;78.82;100201.75;79245;1300;3013770;-63
2023/01/13 04:44:25;;;;;;;15.50;4.50;;;;;;;-1.09;79.08;100202.95;78061;1300;3049858;-64
2023/01/13 04:46:52;;;;;;;15.40;4.10;;;;;;;-1.23;79.51;100206.57;79312;1295;3013923;-63
2023/01/13 04:49:18;;;;;;;14.50;4.40;;;;;;;-1.18;79.65;100203.47;79242;1296;3011643;-61
2023/01/13 04:51:47;;;;;;;10.40;3.60;;;;;;;-1.20;79.71;100203.98;78007;1301;3050996;-61
2023/01/13 04:54:15;;;;;;;12.60;3.50;;;;;;;-1.19;79.59;100207.25;79359;1301;3018612;-60
2023/01/13 04:56:41;;;;;;;14.90;4.90;;;;;;;-1.25;80.02;100212.59;79236;1295;3013604;-63
2023/01/13 04:59:11;;;;;;;19.00;5.80;;;;;;;-1.22;80.37;100211.55;78013;1295;3049034;-62
2023/01/13 05:01:38;;;;;;;22.50;4.70;;;;;;;-1.27;80.17;100207.42;79352;1295;3013414;-61
2023/01/13 05:04:05;;;;;;;20.40;5.00;;;;;;;-1.32;80.23;100208.46;79246;1295;3013470;-63
2023/01/13 05:06:33;;;;;;;15.90;4.80;;;;;;;-1.30;80.46;100206.91;78072;1300;3026036;-61
2023/01/13 05:09:01;;;;;;;14.80;4.00;;;;;;;-1.27;80.53;100210.36;79236;1299;3013722;-62
2023/01/13 05:17:03;;;;;;;11.00;2.80;;;;;;;0.31;74.47;100200.67;78073;1299;3053495;-62
2023/01/13 05:19:31;;;;;;;15.50;4.10;;;;;;;0.18;74.16;100205.55;79347;1301;3013410;-66
2023/01/13 05:27:32;;;;;;;13.10;4.00;;;;;;;-0.45;76.00;100210.55;77982;1300;3051799;-63
2023/01/13 05:29:59;;;;;;;10.40;3.00;;;;;;;-0.59;76.72;100212.65;79234;1295;3013484;-63
2023/01/13 05:32:26;;;;;;;14.40;4.00;;;;;;;-0.77;77.11;100212.17;79377;1295;3011818;-65
2023/01/13 05:34:54;;;;;;;9.40;4.00;;;;;;;-0.89;77.95;100214.77;78149;1299;3050348;-61
2023/01/13 05:37:22;;;;;;;12.00;3.50;;;;;;;-0.96;78.55;100216.17;79319;1300;3018705;-62
2023/01/13 05:45:25;;;;;;;11.60;3.80;;;;;;;-1.24;79.96;100222.56;78339;1301;3056038;-62
2023/01/13 05:47:52;;;;;;;12.30;4.30;;;;;;;-1.24;80.08;100219.46;79263;1295;3012861;-63
2023/01/13 05:50:19;;;;;;;17.10;3.90;;;;;;;-1.32;80.31;100218.44;79262;1296;3011883;-65
2023/01/13 05:52:47;;;;;;;10.00;4.10;;;;;;;-1.35;80.61;100215.85;78180;1298;3052790;-61
2023/01/13 05:55:14;;;;;;;15.60;4.10;;;;;;;-1.30;80.38;100216.02;79407;1300;3013052;-63
2023/01/13 05:57:41;;;;;;;15.30;5.00;;;;;;;-1.38;81.05;100213.61;79327;1295;3012005;-61
2023/01/13 06:00:09;;;;;;;16.20;4.70;;;;;;;-1.39;81.33;100213.28;78117;1299;3055877;-62
2023/01/13 06:02:39;;;;;;;15.80;5.40;;;;;;;-1.45;81.30;100215.67;79304;1301;3011878;-61
2023/01/13 06:05:07;;;;;;;16.20;4.50;;;;;;;-1.51;81.55;100214.64;78068;1295;3026613;-62
2023/01/13 06:07:34;;;;;;;11.20;4.50;;;;;;;-1.61;81.63;100213.95;79282;1301;3013710;-61
2023/01/13 06:10:01;;;;;;;14.80;3.80;;;;;;;-1.58;81.89;100216.02;79366;1301;3011762;-61
2023/01/13 06:12:32;;;;;;;9.50;3.70;;;;;;;-1.03;80.47;100216.85;78255;1300;3069141;-65
2023/01/13 06:15:00;;;;;;;13.10;2.40;;;;;;;-0.36;77.66;100219.61;79458;1295;3013865;-62
2023/01/13 06:17:26;;;;;;;8.90;3.00;;;;;;;-0.02;76.02;100220.51;79263;1295;3011589;-63
2023/01/13 06:19:54;;;;;;;10.50;3.00;;;;;;;-0.09;75.66;100226.05;78092;1300;3053137;-63
2023/01/13 06:22:26;;;;;;;10.70;3.30;;;;;;;-0.34;75.84;100221.16;79243;1300;3013488;-63
2023/01/13 06:24:54;;;;;;;12.60;3.70;;;;;;;-0.54;76.64;100222.95;77984;1298;3051094;-65
2023/01/13 06:27:21;;;;;;;16.50;4.30;;;;;;;-0.85;77.52;100223.20;79304;1295;3015010;-61
2023/01/13 06:29:48;;;;;;;8.70;3.40;;;;;;;-0.93;78.26;100222.70;79450;1301;3012654;-62
2023/01/13 06:32:27;;;;;;;12.90;3.40;;;;;;;-1.01;78.63;100227.34;78168;1301;3049602;-63
2023/01/13 06:34:59;;;;;;;8.50;2.80;;;;;;;-1.02;78.67;100231.48;77988;1301;3052984;-62
2023/01/13 06:37:25;;;;;;;15.30;4.30;;;;;;;-1.11;78.94;100232.18;79279;1295;3011474;-61
2023/01/13 06:39:57;;;;;;;12.20;3.50;;;;;;;-1.04;78.58;100233.89;78721;1299;3011717;-63
2023/01/13 06:45:12;;;;;;;9.40;3.20;;;;;;;-1.08;78.75;100243.52;78015;1300;3068943;-66
2023/01/13 06:47:38;;;;;;;11.60;3.40;;;;;;;-1.07;79.27;100242.66;79272;1295;3012910;-62
2023/01/13 06:50:07;;;;;;;16.90;4.40;;;;;;;-1.06;79.44;100238.38;79238;1295;3013912;-62
2023/01/13 06:52:35;;;;;;;9.60;4.00;;;;;;;-1.03;79.45;100241.11;78241;1295;3053014;-62
2023/01/13 06:55:02;;;;;;;13.80;4.30;;;;;;;-1.12;79.56;100239.91;79276;1300;3013175;-61
2023/01/13 06:57:29;;;;;;;12.20;4.00;;;;;;;-1.14;79.67;100240.95;79588;1301;3011579;-63
2023/01/13 06:59:56;;;;;;;16.80;4.60;;;;;;;-1.13;79.74;100241.29;77976;1296;3026447;-63
2023/01/13 07:02:23;;;;;;;16.30;4.00;;;;;;;-1.19;80.18;100241.81;79450;1295;3013104;-58
2023/01/13 07:04:49;;;;;;;12.20;3.80;;;;;;;-1.20;80.20;100239.92;79177;1300;3011885;-68
2023/01/13 07:07:18;;;;;;;13.50;4.20;;;;;;;-1.25;80.62;100240.95;78040;1295;3027142;-63
2023/01/13 07:09:44;;;;;;;6.30;3.40;;;;;;;-1.17;80.14;100245.41;79213;1317;3019812;-61
2023/01/13 07:12:11;;;;;;;14.10;3.10;;;;;;;-1.10;79.83;100246.10;79180;1300;3011831;-65
2023/01/13 07:17:25;;;;;;;9.60;3.30;;;;;;;0.27;75.70;100249.81;79481;1301;3051592;-60
2023/01/13 07:19:53;;;;;;;13.50;2.90;;;;;;;0.44;74.09;100248.32;80834;1295;3011247;-62
2023/01/13 11:03:23;;;;;;;13.60;5.00;;;;;;;0.71;71.03;100154.48;80111;1305;3011681;-70
2023/01/13 11:05:54;;;;;;;15.80;5.30;;;;;;;0.76;70.60;100158.06;79478;1304;3011665;-71
2023/01/13 11:08:28;;;;;;;9.80;4.50;;;;;;;0.79;70.17;100157.34;78131;1305;3049380;-68
2023/01/13 11:10:56;;;;;;;11.70;4.20;;;;;;;0.84;69.90;100160.75;79197;1303;3011846;-72
2023/01/13 11:14:31;;;;;;;7.00;3.70;;;;;;;0.91;69.64;100158.09;79605;1306;3051516;-70
2023/01/13 11:16:29;;;;;;;13.10;4.40;;;;;;;0.99;69.65;100156.11;77894;1300;3069162;-68
2023/01/13 11:19:01;;;;;;;11.30;4.50;;;;;;;1.04;69.48;100156.92;79157;1301;3014857;-71
2023/01/13 11:21:42;;;;;;;10.00;4.50;;;;;;;0.99;69.51;100156.80;78134;1301;3049252;-70
2023/01/13 11:24:17;;;;;;;12.50;4.60;;;;;;;1.00;69.57;100155.92;78195;1298;3052625;-73
2023/01/13 11:27:12;;;;;;;15.80;4.80;;;;;;;1.01;69.16;100151.10;78139;1300;3050157;-65
2023/01/13 11:29:53;;;;;;;7.90;3.80;;;;;;;1.10;68.98;100149.10;78223;1302;3053498;-70
2023/01/13 11:32:21;;;;;;;11.60;4.60;;;;;;;1.13;68.54;100149.23;78228;1300;3052526;-70
2023/01/13 11:34:54;;;;;;;8.80;4.20;;;;;;;1.21;68.38;100148.11;79845;1308;3012943;-69
2023/01/13 11:37:25;;;;;;;11.20;4.90;;;;;;;1.24;68.59;100150.50;78235;1296;3055319;-72
2023/01/13 11:40:12;;;;;;;14.50;5.10;;;;;;;1.28;68.61;100150.09;79494;1299;3012927;-68
2023/01/13 11:42:52;;;;;;;15.70;5.50;;;;;;;1.30;68.43;100150.59;78242;1302;3053607;-66
2023/01/13 11:45:34;;;;;;;12.50;5.50;;;;;;;1.26;68.38;100152.70;78180;1304;3050826;-71
2023/01/13 11:48:02;;;;;;;14.20;5.30;;;;;;;1.32;68.40;100155.06;78296;1298;3053262;-67
2023/01/13 11:51:00;;;;;;;14.40;5.40;;;;;;;1.28;67.77;100151.48;79502;1301;3013021;-69
2023/01/13 11:53:42;;;;;;;8.90;4.40;;;;;;;1.33;68.00;100148.66;78142;1303;3051691;-62
2023/01/13 11:56:47;;;;;;;13.10;5.10;;;;;;;1.38;67.67;100151.72;78336;1298;3057240;-68
2023/01/13 11:59:49;;;;;;;14.70;5.40;;;;;;;1.37;67.73;100152.76;78409;1298;3049492;-66
2023/01/13 12:02:23;;;;;;;14.10;5.60;;;;;;;1.32;67.55;100153.69;78525;1301;3052578;-67
2023/01/13 12:05:25;;;;;;;10.60;4.60;;;;;;;1.27;67.61;100154.09;79618;1301;3011565;-66
2023/01/13 12:08:30;;;;;;;10.40;5.20;;;;;;;1.31;67.39;100149.90;77991;1308;3053657;-67
2023/01/13 12:11:14;;;;;;;10.20;5.00;;;;;;;1.37;67.32;100147.94;78304;1308;3052421;-66
2023/01/13 12:14:01;;;;;;;12.60;6.10;;;;;;;1.36;67.20;100154.33;78410;1299;3068450;-69
2023/01/13 12:16:29;;;;;;;12.90;5.10;;;;;;;1.40;67.16;100160.66;78086;1302;3050061;-67
2023/01/13 12:19:11;;;;;;;13.50;4.40;;;;;;;1.41;66.94;100159.27;79586;1297;3013291;-68
2023/01/13 12:22:01;;;;;;;21.60;5.90;;;;;;;1.46;66.75;100164.73;78292;1301;3053830;-65
2023/01/13 12:24:36;;;;;;;11.30;4.70;;;;;;;1.52;66.64;100161.89;78412;1299;3050074;-66
2023/01/13 12:27:14;;;;;;;14.10;5.10;;;;;;;1.49;66.39;100162.29;78307;1309;3052072;-70
2023/01/13 12:29:42;;;;;;;12.80;5.60;;;;;;;1.51;66.56;100165.37;78226;1302;3050856;-67
2023/01/13 12:32:14;;;;;;;11.00;5.50;;;;;;;1.49;66.66;100169.01;79459;1302;3018508;-68
2023/01/13 12:34:46;;;;;;;13.10;5.10;;;;;;;1.56;66.46;100171.00;78389;1306;3057748;-70
2023/01/13 12:37:24;;;;;;;9.50;4.40;;;;;;;1.59;66.14;100177.01;79507;1295;3011848;-69
2023/01/13 12:40:18;;;;;;;10.50;4.60;;;;;;;1.54;65.89;100176.90;78020;1302;3053556;-70
2023/01/13 12:45:33;;;;;;;16.50;5.10;;;;;;;1.53;65.87;100176.56;78316;1301;3053122;-68
2023/01/13 12:47:59;;;;;;;13.20;5.30;;;;;;;1.58;65.93;100178.40;79415;1300;3013007;-67
2023/01/13 12:50:28;;;;;;;11.40;5.20;;;;;;;1.55;65.78;100175.16;79543;1301;3012952;-70
2023/01/13 12:52:57;;;;;;;10.30;4.80;;;;;;;1.60;65.92;100174.76;78234;1300;3057125;-65
2023/01/13 12:55:23;;;;;;;9.60;5.10;;;;;;;1.59;65.86;100172.53;79493;1295;3013076;-67
2023/01/13 12:58:05;;;;;;;14.70;5.30;;;;;;;1.54;65.78;100174.48;79497;1296;3011528;-67
2023/01/13 13:00:34;;;;;;;18.70;6.20;;;;;;;1.53;65.98;100172.92;78428;1297;3052461;-70
2023/01/13 13:03:13;;;;;;;23.90;6.20;;;;;;;1.58;66.17;100175.98;79503;1298;3013533;-64
2023/01/13 13:05:55;;;;;;;17.00;6.80;;;;;;;1.58;65.82;100179.09;78201;1296;3051088;-68
2023/01/13 13:08:31;;;;;;;15.00;7.00;;;;;;;1.62;65.90;100177.48;78304;1296;3056492;-71
2023/01/13 13:14:06;;;;;;;14.40;6.90;;;;;;;1.59;66.14;100172.17;78170;1296;3054345;-71
2023/01/13 13:16:35;;;;;;;19.60;7.70;;;;;;;1.52;66.34;100170.70;79669;1296;3012877;-73
2023/01/13 13:19:19;;;;;;;17.60;7.20;;;;;;;1.53;66.29;100169.48;78386;1301;3051703;-73
2023/01/13 13:22:12;;;;;;;11.50;6.60;;;;;;;1.55;65.99;100169.80;78227;1300;3052848;-70
2023/01/13 13:24:41;;;;;;;14.60;5.50;;;;;;;1.51;66.07;100171.58;78268;1294;3069291;-73
2023/01/13 13:27:39;;;;;;;14.00;5.90;;;;;;;1.53;66.21;100168.63;79522;1298;3013036;-70
2023/01/13 13:30:21;;;;;;;8.90;5.00;;;;;;;1.44;66.68;100172.35;78246;1301;3050020;-65
2023/01/13 13:33:08;;;;;;;9.80;4.90;;;;;;;1.48;66.58;100173.87;78255;1300;3053421;-71
2023/01/13 13:35:53;;;;;;;21.20;5.60;;;;;;;1.49;66.46;100175.58;78236;1300;3050545;-69
2023/01/13 13:47:12;;;;;;;18.70;5.90;;;;;;;1.47;66.36;100173.18;78163;1298;3051214;-69
2023/01/13 13:49:51;;;;;;;14.10;5.40;;;;;;;1.45;66.11;100171.46;79495;1301;3012982;-72
2023/01/13 13:52:21;;;;;;;11.80;5.70;;;;;;;1.35;65.98;100171.09;78258;1302;3052754;-68
2023/01/13 13:54:50;;;;;;;15.90;6.00;;;;;;;1.32;66.27;100173.00;79567;1300;3013437;-70
2023/01/13 13:57:25;;;;;;;12.40;5.90;;;;;;;1.31;66.23;100177.34;78314;1304;3025587;-70
2023/01/13 13:59:55;;;;;;;13.60;6.30;;;;;;;1.36;66.09;100180.21;79016;1298;3011445;-71
2023/01/13 14:02:33;;;;;;;9.30;5.20;;;;;;;1.31;65.75;100177.16;79597;1303;3013050;-67
2023/01/13 14:05:44;;;;;;;12.80;6.00;;;;;;;1.25;66.06;100179.47;78340;1295;3050798;-65
2023/01/13 14:08:14;;;;;;;17.60;7.70;;;;;;;1.28;66.22;100180.83;78219;1298;3059131;-72
2023/01/13 14:10:42;;;;;;;18.20;8.90;;;;;;;1.29;65.99;100182.89;79573;1298;3013440;-69
2023/01/13 14:13:14;;;;;;;20.80;9.50;;;;;;;1.35;66.13;100179.88;79047;1297;3011653;-67
2023/01/13 14:15:41;;;;;;;21.30;9.00;;;;;;;1.36;66.18;100185.39;79261;1298;3013140;-67
2023/01/13 14:18:14;;;;;;;16.80;8.30;;;;;;;1.35;66.19;100185.74;78374;1298;3028525;-67
2023/01/13 14:20:43;;;;;;;15.80;7.70;;;;;;;1.32;66.28;100185.63;79537;1300;3011565;-68
2023/01/13 14:23:19;;;;;;;20.60;9.90;;;;;;;1.24;66.45;100184.84;78179;1302;3067733;-71
2023/01/13 14:25:49;;;;;;;27.40;11.90;;;;;;;1.18;66.29;100188.17;78686;1296;3011758;-70
2023/01/13 14:28:20;;;;;;;35.80;14.30;;;;;;;1.15;66.03;100187.88;79599;1297;3013554;-64
2023/01/13 14:30:49;;;;;;;34.20;15.90;;;;;;;1.10;66.01;100187.40;78287;1298;3050055;-71
2023/01/13 14:33:26;;;;;;;43.70;19.00;;;;;;;1.11;66.07;100190.67;79478;1295;3011554;-69
2023/01/13 14:36:15;;;;;;;48.30;20.10;;;;;;;1.12;66.35;100194.11;78338;1301;3050337;-67
2023/01/13 14:38:44;;;;;;;38.10;14.50;;;;;;;1.13;66.05;100192.89;78426;1301;3052470;-67
2023/01/13 14:41:23;;;;;;;30.30;10.70;;;;;;;1.10;66.63;100194.83;79445;1298;3011456;-70
2023/01/13 14:43:53;;;;;;;15.00;7.60;;;;;;;1.11;66.84;100193.27;78078;1296;3069271;-65
2023/01/13 14:46:22;;;;;;;13.70;6.70;;;;;;;0.94;67.46;100193.08;79360;1298;3012768;-62
2023/01/13 14:48:59;;;;;;;21.40;7.90;;;;;;;0.92;67.61;100190.86;78328;1298;3026458;-64
2023/01/13 14:51:28;;;;;;;14.70;6.90;;;;;;;0.84;67.63;100190.41;78015;1298;3049499;-66
2023/01/13 14:53:54;;;;;;;20.10;7.50;;;;;;;0.84;67.52;100190.24;79314;1298;3013845;-66
2023/01/13 14:56:45;;;;;;;20.30;8.20;;;;;;;0.87;66.98;100194.01;79518;1295;3013159;-67
2023/01/13 18:38:34;;;;;;;17.00;7.50;;;;;;;-0.08;74.33;100187.14;80071;1302;3013381;-64
2023/01/13 18:42:49;;;;;;;23.30;9.10;;;;;;;-0.01;73.88;100182.95;78927;1305;3013864;-62
2023/01/13 18:43:48;;;;;;;19.20;8.70;;;;;;;0.06;74.03;100175.66;77634;1307;3052930;-64
2023/01/13 18:46:15;;;;;;;31.90;10.20;;;;;;;0.11;73.97;100168.75;78938;1304;3013659;-63
2023/01/13 18:48:42;;;;;;;27.40;9.30;;;;;;;0.15;73.81;100169.05;78788;1304;3011920;-63
2023/01/13 18:51:09;;;;;;;22.80;9.20;;;;;;;0.23;73.58;100171.60;76582;1305;3028914;-65
2023/01/13 19:37:39;;;;;;;32.50;9.10;;;;;;;0.01;74.70;100193.95;80594;1293;3013417;-64
2023/01/13 19:40:08;;;;;;;21.90;9.30;;;;;;;0.08;74.42;100189.77;79845;1295;3019637;-70
2023/01/13 19:45:28;;;;;;;25.50;10.70;;;;;;;0.25;74.10;100182.27;78581;1296;3052456;-69
2023/01/13 19:47:59;;;;;;;34.10;10.60;;;;;;;0.32;73.88;100182.04;79277;1298;3011750;-74
2023/01/13 19:50:26;;;;;;;33.00;10.30;;;;;;;0.34;73.92;100185.48;78613;1295;4551749;-69
2023/01/13 19:52:52;;;;;;;34.50;10.30;;;;;;;0.40;73.77;100185.45;79937;1292;3011948;-65
2023/01/13 19:55:20;;;;;;;23.70;9.90;;;;;;;0.41;73.44;100184.05;78483;1292;3048488;-65
2023/01/13 19:57:47;;;;;;;25.10;10.70;;;;;;;0.47;73.12;100185.55;80010;1294;3018626;-69
2023/01/13 20:00:19;;;;;;;29.40;10.00;;;;;;;0.47;72.98;100188.65;79874;1295;3013464;-69
2023/01/13 20:02:48;;;;;;;19.00;8.70;;;;;;;0.53;72.99;100185.34;78688;1303;3051828;-69
2023/01/13 20:05:19;;;;;;;29.40;9.30;;;;;;;0.60;72.96;100184.06;79874;1295;3013382;-70
2023/01/13 20:07:48;;;;;;;27.50;9.10;;;;;;;0.71;72.50;100180.53;78705;1295;3057046;-63
2023/01/13 20:10:16;;;;;;;28.20;9.30;;;;;;;0.60;72.09;100181.65;80100;1295;3013386;-68
2023/01/13 20:12:42;;;;;;;37.50;9.10;;;;;;;0.55;72.31;100176.53;79974;1295;3013002;-69
2023/01/13 20:15:12;;;;;;;37.00;9.70;;;;;;;0.55;72.29;100172.73;78612;1292;3050932;-68
2023/01/13 20:17:40;;;;;;;32.10;9.70;;;;;;;0.54;72.36;100172.39;79912;1293;3015179;-70
2023/01/13 20:20:10;;;;;;;25.10;8.70;;;;;;;0.51;72.61;100169.99;78649;1295;3050822;-69
2023/01/13 20:22:39;;;;;;;27.80;9.50;;;;;;;0.48;72.56;100172.95;79829;1295;3011619;-70
2023/01/13 20:25:10;;;;;;;35.80;9.90;;;;;;;0.53;72.82;100168.79;79477;1294;3012851;-69
2023/01/13 20:27:36;;;;;;;28.60;9.40;;;;;;;0.54;72.76;100168.09;79880;1299;3013178;-71
2023/01/13 20:30:05;;;;;;;18.70;8.40;;;;;;;0.55;72.63;100161.02;79902;1293;3011689;-72